Time;durP1;ratioP1;P1;durP2;ratioP2;P2;SDS_P1;SDS_P2;PMS_P1;PMS_P2;Temp;Humidity;BMP_temperature;BMP_pressure;BME280_temperature;BME280_humidity;BME280_pressure;Samples;Min_cycle;Max_cycle;Signal;HPM_P1;HPM_P2
2023/06/07 00:01:18;;;;;;;107.47;102.35;;;;;;;26.77;33.57;101912.69;4992791;28;20108;-70
2023/06/07 00:03:44;;;;;;;108.50;103.45;;;;;;;26.73;33.63;101911.72;4992499;28;20335;-71
2023/06/07 00:06:11;;;;;;;105.93;100.97;;;;;;;26.70;33.83;101912.34;4993134;28;20371;-70
2023/06/07 00:08:36;;;;;;;107.97;102.55;;;;;;;26.66;33.58;101912.22;4992277;28;20030;-70
2023/06/07 00:11:02;;;;;;;109.60;104.13;;;;;;;26.62;33.70;101913.16;5008250;28;20038;-71
2023/06/07 00:13:27;;;;;;;106.05;101.22;;;;;;;26.59;34.09;101916.59;4992420;28;20490;-70
2023/06/07 00:15:53;;;;;;;109.13;103.53;;;;;;;26.54;33.85;101912.81;4993040;28;20088;-70
2023/06/07 00:18:21;;;;;;;107.03;101.68;;;;;;;26.51;33.71;101916.22;4992776;28;20037;-70
2023/06/07 00:20:49;;;;;;;107.75;102.25;;;;;;;26.46;33.95;101910.84;4992468;28;20037;-70
2023/06/07 00:23:15;;;;;;;105.10;100.15;;;;;;;26.43;33.87;101914.22;4992791;28;20466;-70
2023/06/07 00:25:41;;;;;;;107.10;101.85;;;;;;;26.40;34.02;101920.41;4992130;28;20041;-70
2023/06/07 00:28:07;;;;;;;104.93;99.93;;;;;;;26.36;33.80;101919.44;4992635;28;20034;-70
2023/06/07 00:30:32;;;;;;;105.45;100.53;;;;;;;26.32;34.13;101918.44;5012289;28;20042;-70
2023/06/07 00:32:58;;;;;;;104.72;100.07;;;;;;;26.29;34.01;101921.88;5026916;28;20115;-70
2023/06/07 00:35:23;;;;;;;102.68;97.63;;;;;;;26.25;33.83;101921.66;5011122;28;20034;-70
2023/06/07 00:37:48;;;;;;;103.30;98.38;;;;;;;26.21;33.92;101917.13;5011451;28;20033;-70
2023/06/07 00:40:14;;;;;;;109.22;104.15;;;;;;;26.18;34.23;101910.25;5011578;28;20038;-70
2023/06/07 00:42:40;;;;;;;107.95;102.65;;;;;;;26.14;33.97;101909.25;5011206;28;20065;-70
2023/06/07 00:45:06;;;;;;;100.72;96.03;;;;;;;26.11;33.80;101909.91;5011826;28;20033;-70
2023/06/07 00:47:32;;;;;;;104.00;98.90;;;;;;;26.07;34.29;101918.03;5010457;28;20104;-70
2023/06/07 00:49:58;;;;;;;103.50;98.57;;;;;;;26.02;33.93;101912.63;5027921;28;20052;-70
2023/06/07 00:52:24;;;;;;;102.97;98.22;;;;;;;26.00;34.05;101914.09;4996681;28;20538;-70
2023/06/07 00:54:51;;;;;;;103.30;98.47;;;;;;;25.96;34.42;101908.38;4996132;28;20038;-70
2023/06/07 00:57:17;;;;;;;102.50;97.55;;;;;;;25.92;34.16;101912.91;4996504;28;20066;-70
2023/06/07 00:59:43;;;;;;;102.70;97.80;;;;;;;25.88;34.08;101906.41;4995622;28;20038;-70
2023/06/07 01:02:08;;;;;;;102.88;97.78;;;;;;;25.85;34.46;101913.34;4996201;28;20034;-70
2023/06/07 01:04:40;;;;;;;106.38;101.32;;;;;;;25.81;34.52;101906.81;4996836;28;20475;-70
2023/06/07 01:07:07;;;;;;;103.22;98.13;;;;;;;25.78;34.07;101907.47;4996527;28;20061;-70
2023/06/07 01:09:34;;;;;;;100.10;94.90;;;;;;;25.73;34.22;101909.53;4995661;28;20092;-70
2023/06/07 01:12:01;;;;;;;100.97;96.25;;;;;;;25.69;34.22;101899.09;4995295;28;20027;-70
2023/06/07 01:14:27;;;;;;;100.95;96.20;;;;;;;25.67;34.32;101908.84;4996006;28;20027;-70
2023/06/07 01:16:53;;;;;;;99.07;93.78;;;;;;;25.63;34.54;101913.41;4995867;28;20390;-70
2023/06/07 01:19:28;;;;;;;98.28;93.20;;;;;;;25.59;34.27;101902.13;4995863;28;20026;-70
2023/06/07 01:21:59;;;;;;;98.43;93.82;;;;;;;25.55;34.31;101898.38;4995222;28;20121;-70
2023/06/07 01:24:28;;;;;;;102.95;98.22;;;;;;;25.52;34.47;101901.75;5011515;28;20041;-70
2023/06/07 01:26:57;;;;;;;99.05;94.45;;;;;;;25.47;34.16;101901.88;4995248;28;20030;-70
2023/06/07 01:29:24;;;;;;;;;;;;;;;25.45;34.23;101898.63;4996266;28;20281;-70
2023/06/07 01:31:51;;;;;;;95.00;90.30;;;;;;;25.39;34.19;101892.41;4995089;28;20321;-70
2023/06/07 01:34:18;;;;;;;97.78;92.78;;;;;;;25.36;34.32;101898.56;4995252;28;20457;-70
2023/06/07 01:36:43;;;;;;;97.70;92.60;;;;;;;25.33;34.19;101898.41;4995396;28;20061;-70
2023/06/07 01:39:11;;;;;;;96.25;91.57;;;;;;;25.30;34.57;101893.47;4994257;28;20069;-70
2023/06/07 01:41:38;;;;;;;97.82;93.05;;;;;;;25.25;34.88;101889.72;4995154;28;20034;-70
2023/06/07 01:44:03;;;;;;;98.28;93.55;;;;;;;25.22;34.31;101895.88;4995210;28;20030;-70
2023/06/07 01:46:29;;;;;;;95.75;91.03;;;;;;;25.19;34.63;101893.72;4995761;28;20466;-70
2023/06/07 01:48:55;;;;;;;97.72;92.43;;;;;;;25.15;34.82;101898.25;4995114;28;20026;-69
2023/06/07 01:51:20;;;;;;;97.70;92.75;;;;;;;25.13;34.34;101894.16;4995410;28;20422;-70
2023/06/07 01:53:47;;;;;;;95.90;91.35;;;;;;;25.09;34.30;101891.19;4994624;28;20030;-70
2023/06/07 01:56:33;;;;;;;96.47;91.95;;;;;;;25.05;34.49;101884.66;4995275;28;20475;-69
2023/06/07 01:59:02;;;;;;;94.40;89.40;;;;;;;25.02;34.41;101883.34;4994726;28;20057;-69
2023/06/07 02:01:38;;;;;;;92.75;88.40;;;;;;;24.98;34.76;101884.28;4993904;28;20080;-69
2023/06/07 02:04:09;;;;;;;94.05;89.47;;;;;;;24.94;34.83;101889.59;4995166;28;20027;-70
2023/06/07 02:06:40;;;;;;;94.95;90.50;;;;;;;24.91;34.74;101884.69;4994949;28;20093;-70
2023/06/07 02:09:11;;;;;;;94.82;89.75;;;;;;;24.88;34.58;101890.84;4995274;28;20030;-70
2023/06/07 02:11:38;;;;;;;93.68;89.00;;;;;;;24.84;35.00;101887.06;4994677;28;20034;-71
2023/06/07 02:14:04;;;;;;;92.80;88.60;;;;;;;24.81;34.54;101885.75;4995353;28;20045;-70
2023/06/07 02:16:35;;;;;;;93.70;89.32;;;;;;;24.77;34.53;101887.53;4995257;28;20037;-70
2023/06/07 02:19:06;;;;;;;92.47;88.00;;;;;;;24.74;34.53;101898.38;4994894;28;20041;-70
2023/06/07 02:21:32;;;;;;;94.43;89.82;;;;;;;24.71;35.05;101891.50;4995065;28;20042;-70
2023/06/07 02:23:58;;;;;;;92.97;88.20;;;;;;;24.68;34.94;101891.34;4994299;28;20394;-70
2023/06/07 02:26:24;;;;;;;94.63;89.93;;;;;;;24.65;34.65;101886.44;4994812;28;20038;-70
2023/06/07 02:28:49;;;;;;;92.50;87.88;;;;;;;24.60;35.09;101892.88;4994231;28;20382;-70
2023/06/07 02:31:15;;;;;;;90.97;86.45;;;;;;;24.58;34.82;101900.66;4994627;28;20467;-70
2023/06/07 02:33:40;;;;;;;92.72;87.93;;;;;;;24.55;34.92;101893.00;4994346;28;20061;-71
2023/06/07 02:36:06;;;;;;;90.50;85.88;;;;;;;24.51;35.05;101890.03;4994568;28;20022;-70
2023/06/07 02:38:31;;;;;;;91.03;86.75;;;;;;;24.48;34.92;101889.84;4994816;28;20082;-70
2023/06/07 02:40:57;;;;;;;93.40;88.47;;;;;;;24.44;35.20;101886.00;4994230;28;20237;-71
2023/06/07 02:43:22;;;;;;;92.18;88.05;;;;;;;24.41;35.10;101884.69;4993704;28;20426;-71
2023/06/07 02:45:48;;;;;;;93.32;88.63;;;;;;;24.37;35.28;101884.50;4994331;28;20034;-71
2023/06/07 02:48:15;;;;;;;92.75;88.15;;;;;;;24.34;35.32;101885.13;4994255;28;20026;-71
2023/06/07 02:50:40;;;;;;;90.97;86.53;;;;;;;24.31;35.23;101880.19;4994059;28;20034;-71
2023/06/07 02:53:07;;;;;;;91.75;86.90;;;;;;;24.28;35.16;101880.00;4993885;28;20100;-70
2023/06/07 02:55:33;;;;;;;88.07;83.82;;;;;;;24.24;34.81;101882.56;4994174;28;20630;-70
2023/06/07 02:57:58;;;;;;;87.32;82.97;;;;;;;24.22;35.41;101881.22;4993388;28;20292;-69
2023/06/07 03:00:24;;;;;;;90.88;86.47;;;;;;;24.19;35.39;101893.69;4994302;28;20042;-69
2023/06/07 03:02:49;;;;;;;89.95;85.53;;;;;;;24.15;35.48;101893.50;4994152;28;20114;-69
2023/06/07 03:05:15;;;;;;;88.63;84.13;;;;;;;24.12;35.00;101893.31;4994353;28;20042;-69
2023/06/07 03:07:40;;;;;;;91.28;86.47;;;;;;;24.08;34.99;101884.81;4994022;28;20471;-70
2023/06/07 03:10:07;;;;;;;87.07;82.97;;;;;;;24.06;35.18;101886.22;4993685;28;20034;-70
2023/06/07 03:12:32;;;;;;;89.22;85.00;;;;;;;24.03;35.39;101895.94;5008577;28;20038;-71
2023/06/07 03:14:58;;;;;;;89.63;84.93;;;;;;;23.99;35.54;101897.69;4993372;28;20387;-70
2023/06/07 03:17:23;;;;;;;87.22;82.97;;;;;;;23.96;35.18;101896.38;4993595;28;20077;-70
2023/06/07 03:19:49;;;;;;;89.32;84.63;;;;;;;23.95;35.52;101891.16;5004008;28;20046;-71
2023/06/07 03:22:14;;;;;;;85.60;81.40;;;;;;;23.91;35.58;101895.63;4993495;28;20403;-70
2023/06/07 03:24:39;;;;;;;87.90;83.55;;;;;;;23.87;35.35;101889.09;4993824;28;20030;-70
2023/06/07 03:27:08;;;;;;;87.97;83.82;;;;;;;23.85;35.13;101885.81;4976462;28;20030;-71
2023/06/07 03:29:33;;;;;;;;;;;;;;;23.81;35.72;101891.13;4992380;28;20046;-70
2023/06/07 03:31:59;;;;;;;87.45;82.47;;;;;;;23.77;35.33;101894.81;4992995;28;20374;-70
2023/06/07 03:34:26;;;;;;;85.47;81.22;;;;;;;23.73;35.39;101895.41;4992234;28;20058;-71
2023/06/07 03:36:52;;;;;;;89.55;84.95;;;;;;;23.70;35.88;101887.69;5008297;28;20043;-70
2023/06/07 03:39:17;;;;;;;86.05;81.60;;;;;;;23.67;35.25;101902.09;4993697;28;20433;-70
2023/06/07 03:41:43;;;;;;;87.22;82.57;;;;;;;23.64;35.52;101905.47;4992822;28;20042;-71
2023/06/07 03:44:08;;;;;;;85.80;80.30;;;;;;;23.63;35.58;101897.50;4993501;28;20476;-69
2023/06/07 03:46:33;;;;;;;86.45;82.22;;;;;;;23.59;35.52;101913.03;4993271;28;20483;-69
2023/06/07 03:48:59;;;;;;;87.70;82.82;;;;;;;23.55;35.37;101910.84;4992574;28;20038;-70
2023/06/07 03:51:25;;;;;;;85.15;81.15;;;;;;;23.53;35.79;101906.75;4992788;28;20032;-69
2023/06/07 03:53:50;;;;;;;86.25;82.15;;;;;;;23.49;35.41;101901.03;4992892;28;20034;-69
2023/06/07 03:56:15;;;;;;;88.75;84.43;;;;;;;23.46;35.52;101903.56;4993466;28;20113;-69
2023/06/07 03:58:41;;;;;;;84.47;80.47;;;;;;;23.43;35.61;101904.19;4993287;28;20035;-69
2023/06/07 04:01:06;;;;;;;84.65;80.47;;;;;;;23.41;35.53;101911.94;5008029;28;20390;-69
2023/06/07 04:03:32;;;;;;;86.07;81.57;;;;;;;23.39;35.96;101905.94;4992841;28;20031;-70
2023/06/07 04:05:58;;;;;;;84.90;80.75;;;;;;;23.35;35.80;101905.69;4992574;28;20031;-70
2023/06/07 04:08:23;;;;;;;83.80;79.40;;;;;;;23.33;36.04;101913.44;4993038;28;20430;-70
2023/06/07 04:10:50;;;;;;;82.03;77.70;;;;;;;23.28;35.81;101903.34;4992781;28;20112;-70
2023/06/07 04:13:15;;;;;;;83.05;78.85;;;;;;;23.26;35.60;101910.28;4992920;28;20108;-70
2023/06/07 04:15:41;;;;;;;82.47;78.53;;;;;;;23.23;36.15;101910.84;4992728;28;20459;-70
2023/06/07 04:18:06;;;;;;;81.78;77.50;;;;;;;23.20;35.63;101908.69;4992777;28;20423;-70
2023/06/07 04:20:32;;;;;;;83.55;79.38;;;;;;;23.17;36.22;101901.84;4992851;28;20382;-70
2023/06/07 04:22:57;;;;;;;80.82;76.53;;;;;;;23.16;35.66;101907.66;4992262;28;20038;-70
2023/06/07 04:25:33;;;;;;;82.30;78.10;;;;;;;23.11;36.22;101906.63;4991820;28;20368;-70
2023/06/07 04:28:02;;;;;;;81.45;77.15;;;;;;;23.09;36.22;101908.03;4992274;28;20105;-70
2023/06/07 04:30:34;;;;;;;82.25;78.25;;;;;;;23.05;36.08;101907.81;4992537;28;20479;-70
2023/06/07 04:33:04;;;;;;;82.93;78.90;;;;;;;23.02;36.17;101910.34;4992134;28;20051;-70
2023/06/07 04:35:31;;;;;;;80.28;76.68;;;;;;;22.99;36.11;101902.69;4992757;28;20467;-70
2023/06/07 04:37:57;;;;;;;83.03;78.65;;;;;;;22.96;36.01;101908.78;4992067;28;20061;-70
2023/06/07 04:40:23;;;;;;;81.93;78.05;;;;;;;22.93;36.30;101910.19;5012695;28;20501;-70
2023/06/07 04:43:05;;;;;;;81.80;77.75;;;;;;;22.90;35.92;101908.00;5011144;28;20038;-70
2023/06/07 04:45:34;;;;;;;80.72;76.63;;;;;;;22.87;36.37;101914.13;4992731;28;20121;-70
2023/06/07 04:48:00;;;;;;;80.38;76.57;;;;;;;22.83;36.56;101905.66;4990993;28;20026;-69
2023/06/07 04:50:28;;;;;;;80.82;76.80;;;;;;;22.81;36.31;101910.63;4992644;28;20038;-70
2023/06/07 04:53:03;;;;;;;81.50;76.45;;;;;;;22.79;36.26;101906.53;4992326;28;20045;-70
2023/06/07 04:55:31;;;;;;;79.70;75.90;;;;;;;22.75;36.56;101900.78;4991979;28;20038;-69
2023/06/07 04:57:58;;;;;;;81.28;76.88;;;;;;;22.73;36.55;101905.78;4992356;28;20030;-70
2023/06/07 05:00:27;;;;;;;79.45;75.50;;;;;;;22.72;36.14;101909.63;4992795;28;20030;-70
2023/06/07 05:02:53;;;;;;;77.13;72.93;;;;;;;22.69;36.37;101902.78;4993605;28;20069;-70
2023/06/07 05:05:21;;;;;;;78.57;74.70;;;;;;;22.68;36.39;101905.84;4992759;28;20092;-70
2023/06/07 05:07:47;;;;;;;;;;;;;;;22.64;36.60;101900.09;5011000;28;20041;-70
2023/06/07 05:10:13;;;;;;;75.22;71.53;;;;;;;22.62;36.50;101901.53;5010843;28;19913;-70
2023/06/07 05:12:38;;;;;;;76.78;72.95;;;;;;;22.58;36.61;101905.97;5011561;28;20034;-70
2023/06/07 05:15:05;;;;;;;77.35;73.30;;;;;;;22.55;36.51;101912.06;5011173;28;20068;-70
2023/06/07 05:17:30;;;;;;;79.15;75.25;;;;;;;22.53;36.45;101919.81;5010716;28;20049;-70
2023/06/07 05:19:56;;;;;;;78.88;74.88;;;;;;;22.50;36.73;101925.91;5010473;28;20041;-70
2023/06/07 05:22:21;;;;;;;78.35;74.07;;;;;;;22.46;36.42;101921.00;5011189;28;20037;-70
2023/06/07 05:24:47;;;;;;;78.95;75.07;;;;;;;22.44;36.68;101916.91;5011363;28;20044;-71
2023/06/07 05:27:14;;;;;;;74.72;70.63;;;;;;;22.42;36.81;101922.69;5011120;28;20470;-70
2023/06/07 05:29:39;;;;;;;73.55;69.95;;;;;;;22.41;36.46;101925.75;5010703;28;20030;-70
2023/06/07 05:32:05;;;;;;;72.82;68.70;;;;;;;22.39;36.82;101923.28;5010070;28;20033;-70
2023/06/07 05:34:31;;;;;;;71.38;67.93;;;;;;;22.36;36.36;101923.88;5011255;28;20046;-70
2023/06/07 05:36:57;;;;;;;78.38;73.78;;;;;;;22.35;36.38;101929.66;5013204;28;20033;-70
2023/06/07 05:39:24;;;;;;;75.68;71.88;;;;;;;22.33;36.48;101932.72;5014165;28;20054;-70
2023/06/07 05:41:51;;;;;;;70.43;67.15;;;;;;;22.32;36.77;101933.81;5014799;28;20084;-70
2023/06/07 05:44:16;;;;;;;73.90;69.90;;;;;;;22.29;36.75;101923.41;5014497;28;20426;-70
2023/06/07 05:46:42;;;;;;;72.38;69.00;;;;;;;22.28;36.46;101929.22;5029378;28;20028;-71
2023/06/07 05:49:07;;;;;;;74.70;70.65;;;;;;;22.26;36.47;101929.50;5029641;28;20504;-70
2023/06/07 05:51:33;;;;;;;71.78;68.47;;;;;;;22.23;36.64;101930.91;5014056;28;20065;-70
2023/06/07 05:53:58;;;;;;;74.53;70.25;;;;;;;22.22;36.89;101934.75;5013560;28;20040;-70
2023/06/07 05:56:24;;;;;;;73.65;69.90;;;;;;;22.19;36.81;101935.34;5013322;28;20060;-70
2023/06/07 05:58:50;;;;;;;75.80;71.57;;;;;;;22.19;36.75;101938.09;5014685;28;20042;-70
2023/06/07 06:01:16;;;;;;;72.97;68.97;;;;;;;22.17;36.75;101931.22;5013976;28;20048;-70
2023/06/07 06:03:41;;;;;;;72.88;68.97;;;;;;;22.17;37.03;101931.22;5013765;28;20034;-70
2023/06/07 06:06:15;;;;;;;73.57;69.78;;;;;;;22.14;36.66;101932.63;5012038;28;20112;-70
2023/06/07 06:08:41;;;;;;;71.60;68.20;;;;;;;22.13;36.48;101932.94;5014223;28;20470;-71
2023/06/07 06:11:09;;;;;;;74.40;69.50;;;;;;;22.12;37.07;101936.78;5029338;28;20481;-70
2023/06/07 06:13:35;;;;;;;;;;;;;;;22.13;36.59;101932.94;5014677;28;20030;-70
2023/06/07 06:16:00;;;;;;;73.28;68.57;;;;;;;22.10;36.66;101939.00;5014010;28;19920;-70
2023/06/07 06:18:25;;;;;;;73.43;69.65;;;;;;;22.09;36.62;101940.94;5014200;28;20028;-70
2023/06/07 06:20:51;;;;;;;71.88;68.30;;;;;;;22.09;37.14;101945.63;5013361;28;20034;-70
2023/06/07 06:23:16;;;;;;;73.65;69.57;;;;;;;22.08;36.90;101942.06;5013270;28;20037;-70
2023/06/07 06:25:41;;;;;;;72.47;68.78;;;;;;;22.08;37.22;101939.31;5012366;28;20057;-70
2023/06/07 06:28:07;;;;;;;75.95;71.53;;;;;;;22.06;36.68;101935.19;5013552;28;20033;-70
2023/06/07 06:30:32;;;;;;;71.50;68.07;;;;;;;22.07;37.16;101939.59;5013351;28;20109;-70
2023/06/07 06:32:59;;;;;;;73.45;69.85;;;;;;;22.06;37.18;101937.94;5013664;28;20034;-71
2023/06/07 06:35:25;;;;;;;71.60;67.90;;;;;;;22.04;36.67;101939.03;5013887;28;20053;-70
2023/06/07 06:37:50;;;;;;;71.75;68.13;;;;;;;22.05;37.15;101945.41;5013914;28;20042;-70
2023/06/07 06:40:18;;;;;;;72.63;68.43;;;;;;;22.04;36.80;101944.56;5013506;28;20414;-70
2023/06/07 06:42:43;;;;;;;71.40;67.03;;;;;;;22.04;37.23;101954.75;5012068;28;20046;-70
2023/06/07 06:45:09;;;;;;;72.03;68.10;;;;;;;22.06;36.78;101963.53;5011904;28;20289;-70
2023/06/07 06:47:36;;;;;;;72.45;68.82;;;;;;;22.04;36.72;101969.31;5028074;28;20030;-70
2023/06/07 06:50:01;;;;;;;74.10;70.53;;;;;;;22.03;37.31;101956.69;5013254;28;20026;-70
2023/06/07 06:52:26;;;;;;;74.30;69.63;;;;;;;22.04;36.92;101952.00;5013158;28;20037;-70
2023/06/07 06:54:52;;;;;;;72.50;68.65;;;;;;;22.04;36.81;101958.31;5013659;28;20026;-70
2023/06/07 06:57:17;;;;;;;72.05;68.20;;;;;;;22.04;36.94;101961.06;5012370;28;20040;-70
2023/06/07 06:59:42;;;;;;;71.15;67.63;;;;;;;22.04;37.37;101957.50;5012421;28;20128;-70
2023/06/07 07:02:08;;;;;;;73.95;69.55;;;;;;;22.04;36.68;101966.56;5013030;28;20077;-71
2023/06/07 07:04:34;;;;;;;72.72;68.75;;;;;;;22.04;37.06;101963.00;5013104;28;20065;-71
2023/06/07 07:07:00;;;;;;;73.78;69.35;;;;;;;22.04;37.04;101968.50;5012222;28;20038;-71
2023/06/07 07:09:25;;;;;;;73.70;69.78;;;;;;;22.03;37.30;101964.94;5012800;28;20040;-69
2023/06/07 07:11:50;;;;;;;71.35;67.40;;;;;;;22.03;36.92;101967.69;5013029;28;20109;-71
2023/06/07 07:14:16;;;;;;;72.78;68.93;;;;;;;22.03;37.23;101958.63;5012594;28;20040;-70
2023/06/07 07:16:41;;;;;;;73.90;69.05;;;;;;;22.03;36.96;101964.13;5013174;28;20034;-70
2023/06/07 07:19:06;;;;;;;73.80;70.03;;;;;;;22.04;37.44;101965.75;5013002;28;20125;-70
2023/06/07 07:21:32;;;;;;;74.68;70.28;;;;;;;22.04;37.10;101971.25;5012954;28;20057;-70
2023/06/07 07:23:57;;;;;;;74.20;70.05;;;;;;;22.04;37.18;101968.50;5012951;28;20030;-70
2023/06/07 07:26:23;;;;;;;74.47;70.28;;;;;;;22.04;37.04;101965.75;5011764;28;20038;-70
2023/06/07 07:28:48;;;;;;;72.70;68.97;;;;;;;22.04;37.17;101963.00;5013044;28;20033;-69
2023/06/07 07:31:14;;;;;;;75.57;71.80;;;;;;;22.06;37.47;101968.22;5012431;28;20523;-70
2023/06/07 07:33:40;;;;;;;74.90;70.65;;;;;;;22.06;37.54;101969.03;5012770;28;20050;-70
2023/06/07 07:36:07;;;;;;;75.32;71.22;;;;;;;22.07;37.17;101975.34;5010899;28;20033;-70
2023/06/07 07:38:37;;;;;;;73.90;69.50;;;;;;;22.08;37.61;101985.25;5012861;28;20120;-70
2023/06/07 07:41:03;;;;;;;71.60;68.10;;;;;;;22.08;37.77;101990.78;5012201;28;20477;-70
2023/06/07 07:43:29;;;;;;;71.72;67.53;;;;;;;22.09;37.70;101992.41;5013102;28;20029;-70
2023/06/07 07:45:54;;;;;;;70.35;66.60;;;;;;;22.08;37.46;101994.34;5012435;28;20497;-70
2023/06/07 07:48:20;;;;;;;70.72;67.15;;;;;;;22.08;37.77;101986.09;5010916;28;20029;-70
2023/06/07 07:50:45;;;;;;;69.63;66.22;;;;;;;22.08;37.36;101993.53;5012535;28;20121;-70
2023/06/07 07:53:10;;;;;;;71.57;67.65;;;;;;;22.09;37.79;101975.88;5011262;28;20108;-71
2023/06/07 07:55:36;;;;;;;72.53;68.55;;;;;;;22.10;37.89;101980.25;5027047;28;20456;-70
2023/06/07 07:58:01;;;;;;;72.32;68.78;;;;;;;22.10;37.73;101983.03;5012864;28;20069;-70
2023/06/07 08:00:27;;;;;;;73.65;69.65;;;;;;;22.13;37.92;101985.22;5012158;28;20185;-70
2023/06/07 08:02:52;;;;;;;71.90;68.05;;;;;;;22.13;37.89;101982.47;5011680;28;20413;-70
2023/06/07 08:05:18;;;;;;;72.60;69.00;;;;;;;22.13;37.91;101983.28;5011745;28;20512;-71
2023/06/07 08:07:43;;;;;;;71.25;67.75;;;;;;;22.14;37.24;101976.66;5011232;28;20060;-70
2023/06/07 08:10:09;;;;;;;73.57;69.50;;;;;;;22.14;37.39;101973.91;5010408;28;20056;-71
2023/06/07 08:12:35;;;;;;;72.20;68.05;;;;;;;22.16;37.73;101985.44;5012085;28;20037;-69
2023/06/07 08:15:01;;;;;;;73.25;69.07;;;;;;;22.16;37.43;101973.63;5011271;28;20044;-69
2023/06/07 08:17:26;;;;;;;74.97;70.88;;;;;;;22.19;37.62;101978.53;5011792;28;20045;-69
2023/06/07 08:19:52;;;;;;;71.93;68.10;;;;;;;22.19;37.65;101973.88;5027078;28;20069;-70
2023/06/07 08:22:17;;;;;;;73.30;69.50;;;;;;;22.21;37.67;101973.59;5011761;28;20060;-70
2023/06/07 08:24:43;;;;;;;72.28;68.43;;;;;;;22.23;37.99;101976.88;5012000;28;20033;-70
2023/06/07 08:27:08;;;;;;;72.70;68.90;;;;;;;22.23;37.68;101976.88;5011407;28;20057;-70
2023/06/07 08:29:33;;;;;;;74.38;70.05;;;;;;;22.24;37.86;101978.50;5012056;28;20113;-70
2023/06/07 08:31:59;;;;;;;71.28;67.57;;;;;;;22.25;37.39;101983.72;5011860;28;20474;-71
2023/06/07 08:34:27;;;;;;;71.88;68.05;;;;;;;22.27;37.97;101980.66;5009240;28;20565;-71
2023/06/07 08:36:54;;;;;;;73.50;69.72;;;;;;;22.29;37.78;101986.72;5010934;28;20378;-70
2023/06/07 08:39:19;;;;;;;74.07;70.20;;;;;;;22.30;37.63;101980.13;5027290;28;20467;-71
2023/06/07 08:41:45;;;;;;;72.53;68.72;;;;;;;22.31;37.94;101984.50;5011717;28;20030;-70
2023/06/07 08:44:10;;;;;;;73.75;69.80;;;;;;;22.31;38.00;101975.41;5011620;28;20088;-70
2023/06/07 08:46:37;;;;;;;73.65;69.53;;;;;;;22.33;37.85;101974.03;5010508;28;20133;-70
2023/06/07 08:49:03;;;;;;;76.43;72.20;;;;;;;22.35;37.83;101963.53;5011616;28;20149;-72
2023/06/07 08:51:30;;;;;;;73.00;69.13;;;;;;;22.39;38.02;101969.25;5011447;28;20037;-71
2023/06/07 08:54:01;;;;;;;73.78;69.68;;;;;;;22.41;38.00;101973.38;5011708;28;20466;-71
2023/06/07 08:56:29;;;;;;;76.95;72.85;;;;;;;22.43;38.00;101973.09;5010636;28;20109;-71
2023/06/07 08:58:55;;;;;;;79.13;74.70;;;;;;;22.46;37.91;101970.56;5011878;28;20072;-71
2023/06/07 09:01:21;;;;;;;77.00;73.00;;;;;;;22.50;37.77;101965.25;5011676;28;20042;-71
2023/06/07 09:03:51;;;;;;;79.00;73.72;;;;;;;22.54;37.95;101971.03;5011234;28;20033;-71
2023/06/07 09:06:18;;;;;;;79.80;75.32;;;;;;;22.57;37.89;101973.19;5011021;28;20441;-69
2023/06/07 09:08:43;;;;;;;76.13;71.78;;;;;;;22.61;38.21;101971.50;5011266;28;20169;-71
2023/06/07 09:11:09;;;;;;;77.60;73.70;;;;;;;22.64;38.40;101970.91;5027380;28;20038;-71
2023/06/07 09:13:36;;;;;;;74.40;70.60;;;;;;;22.69;37.89;101979.09;5015617;28;20420;-70
2023/06/07 09:16:02;;;;;;;77.60;73.30;;;;;;;22.74;38.49;101969.94;5015781;28;20537;-70
2023/06/07 09:18:53;;;;;;;82.05;78.05;;;;;;;22.79;38.11;101967.94;5012863;28;20038;-70
2023/06/07 09:21:26;;;;;;;78.93;74.63;;;;;;;22.84;38.27;101970.63;5014928;28;20041;-70
2023/06/07 09:23:54;;;;;;;78.88;74.07;;;;;;;22.89;38.00;101970.56;5015141;28;20065;-70
2023/06/07 09:26:22;;;;;;;82.70;78.53;;;;;;;22.94;38.27;101961.41;5014885;28;20042;-70
2023/06/07 09:28:48;;;;;;;77.85;73.82;;;;;;;23.00;38.14;101973.19;5014519;28;20034;-70
2023/06/07 09:31:32;;;;;;;81.95;77.32;;;;;;;23.07;38.39;101973.66;5014773;28;20087;-70
2023/06/07 09:33:58;;;;;;;79.63;75.65;;;;;;;23.12;38.22;101970.81;5014884;28;20068;-70
2023/06/07 09:36:23;;;;;;;82.22;78.07;;;;;;;23.18;38.17;101975.13;5029183;28;20122;-70
2023/06/07 09:38:48;;;;;;;80.55;76.25;;;;;;;23.25;38.19;101974.78;5014265;28;20049;-70
2023/06/07 09:41:14;;;;;;;84.53;79.93;;;;;;;23.31;38.47;101963.38;5014104;28;20542;-70
2023/06/07 09:43:46;;;;;;;79.97;75.45;;;;;;;23.40;38.40;101963.50;5014948;28;20037;-70
2023/06/07 09:46:13;;;;;;;82.55;77.90;;;;;;;23.47;38.47;101963.94;5014105;28;20030;-70
2023/06/07 09:48:52;;;;;;;80.78;76.68;;;;;;;23.54;38.58;101956.13;5015181;28;20022;-70
2023/06/07 09:51:20;;;;;;;83.15;78.78;;;;;;;23.61;38.31;101955.75;4995352;28;20395;-71
2023/06/07 09:54:03;;;;;;;84.50;80.25;;;;;;;23.70;38.28;101961.38;4995739;28;20034;-70
2023/06/07 09:56:28;;;;;;;85.13;80.38;;;;;;;23.78;38.08;101965.41;4995012;28;20034;-71
2023/06/07 09:59:07;;;;;;;85.28;80.57;;;;;;;23.86;38.31;101970.22;4995467;28;20030;-70
2023/06/07 10:01:45;;;;;;;88.55;83.43;;;;;;;23.93;38.50;101959.63;4994875;28;20034;-72
2023/06/07 10:04:11;;;;;;;85.87;81.17;;;;;;;24.01;38.35;101958.09;4995282;28;20042;-72
2023/06/07 10:06:41;;;;;;;89.40;84.63;;;;;;;24.08;38.07;101959.34;4994713;28;20371;-71
2023/06/07 10:09:07;;;;;;;87.25;82.35;;;;;;;24.17;37.85;101965.78;4994559;28;20038;-71
2023/06/07 10:11:34;;;;;;;88.97;84.13;;;;;;;24.25;38.39;101961.50;4994912;28;20066;-71
2023/06/07 10:14:09;;;;;;;87.60;83.47;;;;;;;24.34;37.86;101959.69;4994685;28;20390;-71
2023/06/07 10:16:36;;;;;;;89.82;84.93;;;;;;;24.42;37.93;101952.63;4994774;28;20038;-71
2023/06/07 10:19:18;;;;;;;88.65;84.32;;;;;;;24.51;38.13;101950.78;4981977;28;20061;-71
2023/06/07 10:21:47;;;;;;;89.03;84.30;;;;;;;24.61;38.00;101953.31;5013874;28;20097;-70
2023/06/07 10:24:20;;;;;;;89.35;84.90;;;;;;;24.69;38.00;101957.31;5012306;28;20029;-71
2023/06/07 10:26:57;;;;;;;91.65;87.05;;;;;;;24.80;37.96;101960.69;5014211;28;20109;-70
2023/06/07 10:30:03;;;;;;;92.38;87.47;;;;;;;24.88;37.68;101962.72;5013513;28;20030;-73
2023/06/07 10:32:34;;;;;;;96.93;91.90;;;;;;;24.96;37.57;101959.22;5022248;28;20041;-72
2023/06/07 10:35:02;;;;;;;97.30;91.80;;;;;;;25.06;37.44;101955.41;5013867;28;20049;-71
2023/06/07 10:37:33;;;;;;;92.57;87.68;;;;;;;25.13;37.90;101947.50;5013592;28;20041;-71
2023/06/07 10:40:05;;;;;;;92.82;87.85;;;;;;;25.21;37.39;101937.66;4995029;28;20042;-72
2023/06/07 10:42:33;;;;;;;94.05;89.20;;;;;;;25.29;37.22;101941.63;4994177;28;20088;-71
2023/06/07 10:44:58;;;;;;;95.27;90.37;;;;;;;25.36;37.34;101940.06;4994343;28;20030;-73
2023/06/07 10:47:29;;;;;;;95.65;90.45;;;;;;;25.45;37.39;101948.41;4993920;28;20537;-73
2023/06/07 10:49:56;;;;;;;98.05;92.72;;;;;;;25.51;37.07;101940.81;4994571;28;20398;-71
2023/06/07 10:52:22;;;;;;;101.85;96.78;;;;;;;25.57;37.45;101939.53;4992417;28;20061;-72
2023/06/07 10:54:48;;;;;;;99.78;95.05;;;;;;;25.64;37.49;101937.97;5009592;28;20488;-73
2023/06/07 10:57:30;;;;;;;102.15;96.70;;;;;;;25.71;37.27;101942.25;5010062;28;20069;-71
2023/06/07 11:00:31;;;;;;;100.10;95.10;;;;;;;25.78;37.17;101935.13;4995091;28;20041;-71
2023/06/07 11:03:22;;;;;;;97.95;92.97;;;;;;;25.85;37.04;101940.22;4994455;28;20034;-70
2023/06/07 11:05:53;;;;;;;102.85;97.18;;;;;;;25.90;37.13;101938.16;4992662;28;20042;-70
2023/06/07 11:08:27;;;;;;;104.28;98.82;;;;;;;25.95;36.81;101933.59;4993903;28;20109;-72
2023/06/07 11:10:59;;;;;;;103.45;98.07;;;;;;;26.01;36.83;101924.03;4994054;28;20034;-72